Spokane International Airport
KGEG : now visible

Airfield :











YOU CAN JOIN US ON...

 
LOGIN :

Register | Disclaimer

   EN    FR    IT 

 









Legend :    VFR   Marginal VFR   IFR   Intensive IFR   Very Intensive IFR
Visi :
Ceiling :
>= 8 km
>= 3000ft
5 to 8 km
1000 to 3000 ft
1500m to 5 km
500 to 1000 ft
800 to 1500m
200 to 500 ft
< 800m
< 200 ft
Symbols :   Thunderstorms  Fog  Heavy snow  Heavy precipitations  Wind > 20 kt






- Airport Elevation : 2376 ft
- IATA code : GEG


KGEG - Spokane International

CURRENT METAR :
  • 032053Z 22011KT 10SM -RA FEW038 BKN090 OVC110 18/11 A2984 RMK AO2 LTG DSNT N AND SE AND S RAB1959 TSE16 SLP096 CB DSNT N SE-S P0000 60000 T01780111 51004

EXPIRED METARs :
  • 032016Z 22017KT 10SM -RA FEW035CB BKN100 BKN200 18/13 A2984 RMK AO2 LTG DSNT N AND S AND NW RAB1959 TSE16 CB NE MOV N CB DSNT N AND S AND NW P0000 T01830128
  • 031953Z 21015KT 10SM TS FEW030CB SCT090 BKN110 BKN200 20/12 A2984 RMK AO2 LTG DSNT NW TSB51 SLP093 OCNL LTGIC E TS E MOV N CB DSNT NW VCSH E S-SW T02000122
  • 031853Z 17007KT 10SM SCT029 BKN040 BKN120 22/13 A2984 RMK AO2 SLP089 T02170128
  • 030453Z 13011KT 10SM FEW070 OVC110 24/08 A2976 RMK AO2 SLP060 VIRGA T02390078

TAF KGEG
Valid from the 03 at 18:00 until the 04 at 18:00 UTC


031720Z 0318/0418 VRB05KT P6SM FEW040 SCT090 BKN150
FM031900 21009KT P6SM -SHRA VCTS FEW050 SCT070CB BKN100
FM032200 21009KT P6SM SCT060 BKN100
FM040300 17005KT P6SM FEW060 SCT200
FM041600 19005KT P6SM VCSH SCT080 OVC150
KZSE FIR / North America



MET'MAP, your aeronautical weather chart ! - Copyright ORBIFLY December 2007 - Disclaimer

ORBIFLY MET'MAP TEAM :

Programming & Development : Alexandra Zaïnal
Original concept : Baudouin d'Aumeries
Technical & hardware support : Manuel Goepfert
Assistance : Marc-Olivier Méhu




SOURCES & CREDITS :

   NOAA       Earth
Advisory